createdAt,value
2023-03-12T00:00:48.017Z,98192.00
2023-03-12T00:03:39.516Z,98186.00
2023-03-12T00:06:28.252Z,98197.00
2023-03-12T00:09:16.316Z,98190.00
2023-03-12T00:12:05.563Z,98206.00
2023-03-12T00:14:59.952Z,98203.00
2023-03-12T00:17:50.986Z,98198.00
2023-03-12T00:20:41.887Z,98204.00
2023-03-12T00:23:29.901Z,98210.00
2023-03-12T00:26:20.478Z,98217.00
2023-03-12T00:29:08.005Z,98223.00
2023-03-12T00:31:58.819Z,98207.00
2023-03-12T00:34:53.700Z,98213.00
2023-03-12T00:37:41.189Z,98212.00
2023-03-12T00:40:31.933Z,98212.00
2023-03-12T00:43:23.621Z,98213.00
2023-03-12T00:46:13.975Z,98214.00
2023-03-12T00:49:02.012Z,98230.00
2023-03-12T00:51:49.850Z,98222.00
2023-03-12T00:54:37.681Z,98230.00
2023-03-12T00:57:29.314Z,98231.00
2023-03-12T01:00:17.801Z,98235.00
2023-03-12T01:03:08.732Z,98228.00
2023-03-12T01:06:03.892Z,98225.00
2023-03-12T01:08:55.940Z,98222.00
2023-03-12T01:11:46.693Z,98231.00
2023-03-12T01:14:34.516Z,98231.00
2023-03-12T01:17:26.607Z,98223.00
2023-03-12T01:20:17.410Z,98224.00
2023-03-12T01:23:08.411Z,98225.00
2023-03-12T01:26:02.279Z,98232.00
2023-03-12T01:28:50.506Z,98222.00
2023-03-12T01:31:39.497Z,98223.00
2023-03-12T01:34:27.317Z,98227.00
2023-03-12T01:37:15.460Z,98218.00
2023-03-12T01:40:06.502Z,98218.00
2023-03-12T01:42:59.963Z,98217.00
2023-03-12T01:46:21.376Z,98221.00
2023-03-12T01:49:35.829Z,98223.00
2023-03-12T01:52:41.535Z,98225.00
2023-03-12T01:55:33.070Z,98232.00
2023-03-12T01:58:29.056Z,98224.00
2023-03-12T02:01:19.974Z,98227.00
2023-03-12T02:04:08.614Z,98228.00
2023-03-12T02:07:20.900Z,98233.00
2023-03-12T02:10:16.584Z,98235.00
2023-03-12T02:13:04.234Z,98229.00
2023-03-12T02:15:57.401Z,98232.00
2023-03-12T02:18:47.220Z,98236.00
2023-03-12T02:21:37.560Z,98243.00
2023-03-12T02:24:57.212Z,98231.00
2023-03-12T02:27:45.812Z,98247.00
2023-03-12T02:30:39.613Z,98251.00
2023-03-12T02:33:28.247Z,98249.00
2023-03-12T02:36:15.936Z,98246.00
2023-03-12T02:39:07.576Z,98254.00
2023-03-12T02:42:01.240Z,98251.00
2023-03-12T02:44:52.103Z,98260.00
2023-03-12T02:47:42.661Z,98259.00
2023-03-12T02:50:30.447Z,98263.00
2023-03-12T02:53:21.206Z,98272.00
2023-03-12T02:56:09.042Z,98273.00
2023-03-12T02:58:59.444Z,98273.00
2023-03-12T03:01:47.394Z,98279.00
2023-03-12T03:04:35.450Z,98284.00
2023-03-12T03:07:22.943Z,98288.00
2023-03-12T03:10:11.332Z,98291.00
2023-03-12T03:13:02.369Z,98296.00
2023-03-12T03:15:50.182Z,98295.00
2023-03-12T03:18:38.343Z,98297.00
2023-03-12T03:21:27.354Z,98300.00
2023-03-12T03:24:16.994Z,98301.00
2023-03-12T03:27:08.322Z,98302.00
2023-03-12T03:29:56.428Z,98312.00
2023-03-12T03:32:44.428Z,98302.00
2023-03-12T03:35:34.954Z,98304.00
2023-03-12T03:38:24.111Z,98302.00
2023-03-12T03:41:13.106Z,98314.00
2023-03-12T03:44:05.508Z,98317.00
2023-03-12T03:46:55.947Z,98310.00
2023-03-12T03:49:44.284Z,98308.00
2023-03-12T03:52:33.290Z,98321.00
2023-03-12T03:55:23.858Z,98313.00
2023-03-12T03:58:11.464Z,98322.00
2023-03-12T04:01:01.103Z,98323.00
2023-03-12T04:03:48.578Z,98322.00
2023-03-12T04:06:36.663Z,98316.00
2023-03-12T04:09:24.128Z,98318.00
2023-03-12T04:12:11.929Z,98326.00
2023-03-12T04:14:59.802Z,98330.00
2023-03-12T04:17:48.018Z,98333.00
2023-03-12T04:20:35.454Z,98337.00
2023-03-12T04:23:23.002Z,98337.00
2023-03-12T04:26:10.941Z,98341.00
2023-03-12T04:28:59.996Z,98338.00
2023-03-12T04:31:47.540Z,98344.00
2023-03-12T04:34:35.131Z,98335.00
2023-03-12T04:37:23.151Z,98342.00
2023-03-12T04:40:12.227Z,98345.00
2023-03-12T04:42:59.696Z,98345.00
2023-03-12T04:45:47.215Z,98341.00
2023-03-12T04:48:35.951Z,98354.00
2023-03-12T04:51:23.467Z,98349.00
2023-03-12T04:54:11.223Z,98343.00
2023-03-12T04:56:58.683Z,98349.00
2023-03-12T04:59:46.394Z,98350.00
2023-03-12T05:02:33.846Z,98355.00
2023-03-12T05:05:21.699Z,98353.00
2023-03-12T05:08:09.247Z,98359.00
2023-03-12T05:10:57.494Z,98369.00
2023-03-12T05:13:45.934Z,98368.00
2023-03-12T05:16:33.432Z,98378.00
2023-03-12T05:19:20.920Z,98377.00
2023-03-12T05:22:08.348Z,98372.00
2023-03-12T05:24:55.948Z,98374.00
2023-03-12T05:27:43.429Z,98372.00
2023-03-12T05:30:30.878Z,98373.00
2023-03-12T05:33:18.334Z,98371.00
2023-03-12T05:36:06.601Z,98372.00
2023-03-12T05:38:54.154Z,98379.00
2023-03-12T05:41:41.680Z,98383.00
2023-03-12T05:44:29.247Z,98388.00
2023-03-12T05:47:16.785Z,98395.00
2023-03-12T05:50:04.849Z,98388.00
2023-03-12T05:52:52.512Z,98396.00
2023-03-12T05:55:40.626Z,98401.00
2023-03-12T05:58:28.020Z,98407.00
2023-03-12T06:01:20.687Z,98394.00
2023-03-12T06:04:08.390Z,98400.00
2023-03-12T06:06:56.151Z,98393.00
2023-03-12T06:09:43.667Z,98394.00
2023-03-12T06:12:31.216Z,98392.00
2023-03-12T06:15:18.996Z,98395.00
2023-03-12T06:18:06.548Z,98389.00
2023-03-12T06:20:53.966Z,98384.00
2023-03-12T06:23:42.387Z,98376.00
2023-03-12T06:26:30.250Z,98380.00
2023-03-12T06:29:17.846Z,98391.00
2023-03-12T06:32:05.766Z,98388.00
2023-03-12T06:34:53.544Z,98383.00
2023-03-12T06:37:41.019Z,98388.00
2023-03-12T06:40:29.276Z,98388.00
2023-03-12T06:43:16.720Z,98386.00
2023-03-12T06:46:06.047Z,98378.00
2023-03-12T06:48:53.570Z,98392.00
2023-03-12T06:51:41.647Z,98382.00
2023-03-12T06:54:29.219Z,98386.00
2023-03-12T06:57:16.821Z,98387.00
2023-03-12T07:00:06.134Z,98386.00
2023-03-12T07:02:53.652Z,98385.00
2023-03-12T07:05:48.599Z,98384.00
2023-03-12T07:08:36.129Z,98385.00
2023-03-12T07:11:23.635Z,98380.00
2023-03-12T07:14:11.292Z,98385.00
2023-03-12T07:17:01.878Z,98391.00
2023-03-12T07:19:49.923Z,98385.00
2023-03-12T07:22:37.395Z,98386.00
2023-03-12T07:25:24.864Z,98392.00
2023-03-12T07:28:13.236Z,98381.00
2023-03-12T07:31:04.374Z,98388.00
2023-03-12T07:33:52.014Z,98389.00
2023-03-12T07:36:39.698Z,98400.00
2023-03-12T07:39:27.685Z,98402.00
2023-03-12T07:42:15.307Z,98394.00
2023-03-12T07:45:04.303Z,98405.00
2023-03-12T07:47:52.507Z,98400.00
2023-03-12T07:50:40.025Z,98402.00
2023-03-12T07:53:27.505Z,98403.00
2023-03-12T07:56:15.167Z,98403.00
2023-03-12T07:59:03.214Z,98395.00
2023-03-12T08:01:51.452Z,98402.00
2023-03-12T08:04:39.244Z,98403.00
2023-03-12T08:07:32.346Z,98402.00
2023-03-12T08:10:22.589Z,98405.00
2023-03-12T08:13:10.067Z,98408.00
2023-03-12T08:15:57.640Z,98399.00
2023-03-12T08:18:45.441Z,98402.00
2023-03-12T08:21:32.934Z,98404.00
2023-03-12T08:24:22.419Z,98404.00
2023-03-12T08:27:12.198Z,98406.00
2023-03-12T08:29:59.871Z,98405.00
2023-03-12T08:32:47.436Z,98409.00
2023-03-12T08:35:35.479Z,98401.00
2023-03-12T08:38:23.401Z,98414.00
2023-03-12T08:41:11.054Z,98415.00
2023-03-12T08:43:58.572Z,98419.00
2023-03-12T08:46:47.687Z,98410.00
2023-03-12T08:49:37.768Z,98415.00
2023-03-12T08:52:25.385Z,98414.00
2023-03-12T08:55:12.888Z,98416.00
2023-03-12T08:58:00.328Z,98415.00
2023-03-12T09:00:47.867Z,98423.00
2023-03-12T09:03:35.920Z,98425.00
2023-03-12T09:06:23.479Z,98425.00
2023-03-12T09:09:11.119Z,98431.00
2023-03-12T09:11:58.658Z,98427.00
2023-03-12T09:17:54.186Z,98435.00
2023-03-12T09:20:43.411Z,98438.00
2023-03-12T09:23:31.305Z,98428.00
2023-03-12T09:26:18.814Z,98425.00
2023-03-12T09:29:06.377Z,98422.00
2023-03-12T09:31:54.411Z,98422.00
2023-03-12T09:34:41.914Z,98416.00
2023-03-12T09:37:29.523Z,98422.00
2023-03-12T09:40:23.504Z,98415.00
2023-03-12T09:43:24.554Z,98413.00
2023-03-12T09:46:35.221Z,98414.00
2023-03-12T09:49:41.242Z,98419.00
2023-03-12T09:53:04.719Z,98399.00
2023-03-12T09:55:57.576Z,98408.00
2023-03-12T09:58:50.845Z,98406.00
2023-03-12T10:01:49.816Z,98410.00
2023-03-12T10:04:59.859Z,98402.00
2023-03-12T10:08:24.605Z,98397.00
2023-03-12T10:11:25.076Z,98400.00
2023-03-12T10:14:37.457Z,98397.00
2023-03-12T10:17:33.323Z,98396.00
2023-03-12T10:20:51.098Z,98396.00
2023-03-12T10:24:25.460Z,98389.00
2023-03-12T10:27:17.773Z,98391.00
2023-03-12T10:30:24.472Z,98392.00
2023-03-12T10:33:17.797Z,98407.00
2023-03-12T10:36:41.835Z,98395.00
2023-03-12T10:39:29.412Z,98398.00
2023-03-12T10:42:22.010Z,98399.00
2023-03-12T10:45:09.416Z,98407.00
2023-03-12T10:48:03.265Z,98411.00
2023-03-12T10:51:08.554Z,98412.00
2023-03-12T10:53:56.001Z,98414.00
2023-03-12T10:56:52.576Z,98409.00
2023-03-12T10:59:44.241Z,98410.00
2023-03-12T11:02:34.120Z,98405.00
2023-03-12T11:05:32.798Z,98412.00
2023-03-12T11:08:28.645Z,98411.00
2023-03-12T11:11:33.876Z,98409.00
2023-03-12T11:14:29.701Z,98409.00
2023-03-12T11:17:25.254Z,98410.00
2023-03-12T11:20:39.086Z,98399.00
2023-03-12T11:23:30.862Z,98405.00
2023-03-12T11:26:22.324Z,98397.00
2023-03-12T11:29:39.741Z,98396.00
2023-03-12T11:32:49.366Z,98382.00
2023-03-12T11:36:07.130Z,98393.00
2023-03-12T11:39:22.261Z,98395.00
2023-03-12T11:42:27.623Z,98388.00
2023-03-12T11:45:32.216Z,98383.00
2023-03-12T11:48:41.514Z,98386.00
2023-03-12T11:51:46.993Z,98385.00
2023-03-12T11:55:17.637Z,98386.00
2023-03-12T11:58:26.392Z,98391.00
2023-03-12T12:01:29.938Z,98388.00
2023-03-12T12:04:50.957Z,98381.00
2023-03-12T12:08:06.109Z,98392.00
2023-03-12T12:11:00.484Z,98381.00
2023-03-12T12:14:04.686Z,98379.00
2023-03-12T12:17:45.400Z,98377.00
2023-03-12T12:20:57.085Z,98386.00
2023-03-12T12:24:18.263Z,98386.00
2023-03-12T12:27:23.687Z,98385.00
2023-03-12T12:31:04.244Z,98371.00
2023-03-12T12:34:30.142Z,98371.00
2023-03-12T12:37:51.208Z,98373.00
2023-03-12T12:40:51.544Z,98371.00
2023-03-12T12:43:59.367Z,98360.00
2023-03-12T12:46:58.854Z,98366.00
2023-03-12T12:49:57.837Z,98363.00
2023-03-12T12:53:00.707Z,98369.00
2023-03-12T12:56:04.365Z,98360.00
2023-03-12T12:59:50.736Z,98365.00
2023-03-12T13:02:43.114Z,98360.00
2023-03-12T13:05:36.943Z,98369.00
2023-03-12T13:08:43.044Z,98379.00
2023-03-12T13:11:43.900Z,98383.00
2023-03-12T13:14:42.826Z,98390.00
2023-03-12T13:17:59.656Z,98385.00
2023-03-12T13:21:15.731Z,98387.00
2023-03-12T13:24:31.810Z,98387.00
2023-03-12T13:27:36.531Z,98385.00
2023-03-12T13:30:36.096Z,98380.00
2023-03-12T13:33:48.941Z,98378.00
2023-03-12T13:36:39.818Z,98374.00
2023-03-12T13:39:37.753Z,98380.00
2023-03-12T13:42:25.215Z,98378.00
2023-03-12T13:45:31.124Z,98382.00
2023-03-12T13:48:21.243Z,98380.00
2023-03-12T13:51:25.048Z,98373.00
2023-03-12T13:54:23.368Z,98377.00
2023-03-12T13:57:34.711Z,98360.00
2023-03-12T14:00:41.749Z,98364.00
2023-03-12T14:03:38.044Z,98366.00
2023-03-12T14:06:31.783Z,98363.00
2023-03-12T14:10:00.210Z,98362.00
2023-03-12T14:13:12.474Z,98373.00
2023-03-12T14:16:49.405Z,98366.00
2023-03-12T14:19:46.246Z,98360.00
2023-03-12T14:22:38.475Z,98353.00
2023-03-12T14:25:39.822Z,98342.00
2023-03-12T14:28:30.176Z,98341.00
2023-03-12T14:31:24.769Z,98340.00
2023-03-12T14:34:21.321Z,98336.00
2023-03-12T14:37:59.972Z,98346.00
2023-03-12T14:41:15.963Z,98343.00
2023-03-12T14:44:23.283Z,98332.00
2023-03-12T14:47:18.341Z,98328.00
2023-03-12T14:50:06.771Z,98333.00
2023-03-12T14:53:14.038Z,98339.00
2023-03-12T14:56:15.372Z,98341.00
2023-03-12T14:59:21.441Z,98329.00
2023-03-12T15:02:16.960Z,98348.00
2023-03-12T15:05:06.143Z,98340.00
2023-03-12T15:08:02.869Z,98341.00
2023-03-12T15:10:55.783Z,98338.00
2023-03-12T15:13:43.435Z,98339.00
2023-03-12T15:16:31.511Z,98346.00
2023-03-12T15:19:31.448Z,98345.00
2023-03-12T15:22:24.809Z,98334.00
2023-03-12T15:25:26.139Z,98336.00
2023-03-12T15:28:18.333Z,98330.00
2023-03-12T15:31:17.488Z,98334.00
2023-03-12T15:34:06.802Z,98327.00
2023-03-12T15:36:55.146Z,98327.00
2023-03-12T15:39:50.711Z,98330.00
2023-03-12T15:42:47.029Z,98317.00
2023-03-12T15:45:39.504Z,98316.00
2023-03-12T15:48:40.519Z,98313.00
2023-03-12T15:51:36.934Z,98319.00
2023-03-12T15:54:29.447Z,98325.00
2023-03-12T15:57:26.298Z,98326.00
2023-03-12T16:00:29.856Z,98319.00
2023-03-12T16:03:20.384Z,98328.00
2023-03-12T16:06:20.951Z,98322.00
2023-03-12T16:09:16.087Z,98329.00
2023-03-12T16:12:04.047Z,98326.00
2023-03-12T16:14:51.587Z,98332.00
2023-03-12T16:17:39.082Z,98321.00
2023-03-12T16:20:26.908Z,98329.00
2023-03-12T16:23:15.685Z,98334.00
2023-03-12T16:26:06.177Z,98333.00
2023-03-12T16:28:53.643Z,98330.00
2023-03-12T16:31:41.229Z,98340.00
2023-03-12T16:34:29.189Z,98340.00
2023-03-12T16:37:16.787Z,98349.00
2023-03-12T16:40:06.315Z,98346.00
2023-03-12T16:42:55.740Z,98353.00
2023-03-12T16:45:46.951Z,98340.00
2023-03-12T16:48:35.347Z,98355.00
2023-03-12T16:51:23.164Z,98336.00
2023-03-12T16:54:12.140Z,98335.00
2023-03-12T16:57:00.095Z,98337.00
2023-03-12T16:59:47.684Z,98335.00
2023-03-12T17:02:36.618Z,98335.00
2023-03-12T17:05:27.569Z,98334.00
2023-03-12T17:08:16.012Z,98340.00
2023-03-12T17:11:22.827Z,98346.00
2023-03-12T17:14:22.837Z,98344.00
2023-03-12T17:17:10.600Z,98343.00
2023-03-12T17:20:00.494Z,98334.00
2023-03-12T17:22:48.243Z,98335.00
2023-03-12T17:25:40.421Z,98327.00
2023-03-12T17:28:27.988Z,98346.00
2023-03-12T17:31:15.624Z,98344.00
2023-03-12T17:34:04.089Z,98341.00
2023-03-12T17:36:51.654Z,98346.00
2023-03-12T17:39:39.216Z,98347.00
2023-03-12T17:42:26.631Z,98342.00
2023-03-12T17:45:14.256Z,98357.00
2023-03-12T17:48:01.720Z,98350.00
2023-03-12T17:50:49.588Z,98354.00
2023-03-12T17:53:39.592Z,98354.00
2023-03-12T17:56:27.073Z,98357.00
2023-03-12T17:59:14.605Z,98354.00
2023-03-12T18:02:02.248Z,98356.00
2023-03-12T18:04:49.837Z,98364.00
2023-03-12T18:07:38.768Z,98366.00
2023-03-12T18:10:26.183Z,98363.00
2023-03-12T18:13:13.756Z,98376.00
2023-03-12T18:16:01.274Z,98380.00
2023-03-12T18:18:50.971Z,98380.00
2023-03-12T18:21:39.710Z,98382.00
2023-03-12T18:24:27.151Z,98383.00
2023-03-12T18:27:14.646Z,98391.00
2023-03-12T18:30:02.151Z,98393.00
2023-03-12T18:32:49.626Z,98388.00
2023-03-12T18:35:37.178Z,98388.00
2023-03-12T18:38:24.857Z,98379.00
2023-03-12T18:41:14.355Z,98388.00
2023-03-12T18:44:01.914Z,98395.00
2023-03-12T18:46:51.205Z,98396.00
2023-03-12T18:49:38.698Z,98400.00
2023-03-12T18:52:26.251Z,98406.00
2023-03-12T18:55:15.804Z,98396.00
2023-03-12T18:58:03.579Z,98393.00
2023-03-12T19:00:56.090Z,98398.00
2023-03-12T19:03:43.517Z,98411.00
2023-03-12T19:06:40.796Z,98391.00
2023-03-12T19:09:35.544Z,98389.00
2023-03-12T19:12:23.012Z,98387.00
2023-03-12T19:15:12.076Z,98384.00
2023-03-12T19:17:59.473Z,98386.00
2023-03-12T19:20:47.802Z,98389.00
2023-03-12T19:23:35.879Z,98398.00
2023-03-12T19:26:23.478Z,98389.00
2023-03-12T19:29:10.984Z,98391.00
2023-03-12T19:31:58.483Z,98382.00
2023-03-12T19:34:50.116Z,98386.00
2023-03-12T19:37:39.377Z,98395.00
2023-03-12T19:40:27.018Z,98388.00
2023-03-12T19:43:14.446Z,98394.00
2023-03-12T19:46:04.902Z,98391.00
2023-03-12T19:48:52.371Z,98395.00
2023-03-12T19:51:41.289Z,98395.00
2023-03-12T19:54:29.599Z,98399.00
2023-03-12T19:57:17.519Z,98397.00
2023-03-12T20:00:10.595Z,98379.00
2023-03-12T20:02:59.760Z,98383.00
2023-03-12T20:05:47.465Z,98377.00
2023-03-12T20:08:34.930Z,98390.00
2023-03-12T20:11:22.359Z,98380.00
2023-03-12T20:14:09.892Z,98380.00
2023-03-12T20:16:57.468Z,98371.00
2023-03-12T20:19:45.093Z,98379.00
2023-03-12T20:22:36.570Z,98380.00
2023-03-12T20:25:24.075Z,98378.00
2023-03-12T20:28:11.656Z,98381.00
2023-03-12T20:31:11.532Z,98378.00
2023-03-12T20:33:59.510Z,98381.00
2023-03-12T20:36:47.024Z,98382.00
2023-03-12T20:39:34.494Z,98381.00
2023-03-12T20:42:22.005Z,98380.00
2023-03-12T20:45:10.069Z,98369.00
2023-03-12T20:47:58.818Z,98365.00
2023-03-12T20:50:46.415Z,98375.00
2023-03-12T20:53:33.895Z,98374.00
2023-03-12T20:56:21.414Z,98383.00
2023-03-12T20:59:09.144Z,98370.00
2023-03-12T21:01:56.584Z,98379.00
2023-03-12T21:04:44.799Z,98398.00
2023-03-12T21:07:32.317Z,98405.00
2023-03-12T21:10:20.648Z,98404.00
2023-03-12T21:13:08.190Z,98401.00
2023-03-12T21:15:55.634Z,98403.00
2023-03-12T21:18:43.086Z,98413.00
2023-03-12T21:21:32.146Z,98408.00
2023-03-12T21:24:19.732Z,98426.00
2023-03-12T21:27:11.393Z,98422.00
2023-03-12T21:30:00.995Z,98423.00
2023-03-12T21:32:48.500Z,98419.00
2023-03-12T21:35:36.108Z,98438.00
2023-03-12T21:38:23.675Z,98434.00
2023-03-12T21:41:17.160Z,98431.00
2023-03-12T21:44:04.808Z,98434.00
2023-03-12T21:46:52.302Z,98424.00
2023-03-12T21:49:39.794Z,98428.00
2023-03-12T21:52:27.274Z,98420.00
2023-03-12T21:55:16.762Z,98432.00
2023-03-12T21:58:04.234Z,98426.00
2023-03-12T22:00:52.119Z,98432.00
2023-03-12T22:03:41.664Z,98431.00
2023-03-12T22:06:29.793Z,98445.00
2023-03-12T22:09:18.507Z,98439.00
2023-03-12T22:12:06.324Z,98442.00
2023-03-12T22:14:53.808Z,98441.00
2023-03-12T22:17:41.260Z,98438.00
2023-03-12T22:20:28.732Z,98419.00
2023-03-12T22:23:16.299Z,98428.00
2023-03-12T22:26:07.011Z,98425.00
2023-03-12T22:28:58.091Z,98423.00
2023-03-12T22:31:45.571Z,98432.00
2023-03-12T22:34:34.061Z,98428.00
2023-03-12T22:37:21.528Z,98431.00
2023-03-12T22:40:10.235Z,98423.00
2023-03-12T22:42:57.796Z,98416.00
2023-03-12T22:45:45.279Z,98417.00
2023-03-12T22:48:32.892Z,98416.00
2023-03-12T22:51:20.631Z,98406.00
2023-03-12T22:54:08.120Z,98408.00
2023-03-12T22:56:55.550Z,98411.00
2023-03-12T22:59:42.968Z,98401.00
2023-03-12T23:02:30.411Z,98400.00
2023-03-12T23:05:18.094Z,98402.00
2023-03-12T23:08:05.859Z,98397.00
2023-03-12T23:11:03.209Z,98399.00
2023-03-12T23:13:52.804Z,98395.00
2023-03-12T23:16:40.342Z,98387.00
2023-03-12T23:19:33.591Z,98398.00
2023-03-12T23:22:20.991Z,98403.00
2023-03-12T23:25:09.368Z,98399.00
2023-03-12T23:27:57.102Z,98399.00
2023-03-12T23:30:52.340Z,98384.00
2023-03-12T23:33:40.260Z,98383.00
2023-03-12T23:36:28.112Z,98385.00
2023-03-12T23:39:15.972Z,98386.00
2023-03-12T23:42:03.499Z,98386.00
2023-03-12T23:44:50.952Z,98385.00
2023-03-12T23:47:39.147Z,98377.00
2023-03-12T23:50:26.647Z,98372.00
2023-03-12T23:53:14.130Z,98366.00
2023-03-12T23:56:04.949Z,98371.00
2023-03-12T23:58:52.627Z,98366.00
